Bloomingdale, Georgia
Current Conditions -  °F | °C
As of 5:53 PM on Tuesday 25 Nov 2014 (Local Time) from KSAV Reporting Station
Light Rain Light Rain  
Wind Chill: 60°   Ceiling: 500
Heat Index: 60°   Visibility: 2.5mi
Dew Point: 57°   Wind: 0mph
Humidity: 90%   Direction: NA
Pressure: 30.01"   Gusts: NA
Location:  32.13°N, 81.3°W
Report Text: KSAV 252253Z 00000KT 2 1/2SM -RA OVC005 16/14 A3001 RMK AO2 SFC VIS 8 RAB2155 SLP162 P0001 T01560139 $
Loading
Personal Weather Stations






























Interactive Weather Map New forecast layout! Learn more

10-Day Weather Forecast

Advertisements
Track Severe Weather on mobile